.
WxDataArchive / Data Records for 2013-03-23
2013-03-22 March 2013 2013-03-24

Data Records for Saturday, 23 March 2013

Time	Temp	Chill	HIndex	Humid	Dewpt	 Wind 	HiWind	WindDir	Rain 	Barom 
-----	----	-----	------	-----	-----	------	------	-------	-----	----- 
00:00	27.8	27.8	27.8	58	15.0	0	0	---	0.00	30.068 
00:05	27.6	27.6	27.6	59	15.2	0	0	---	0.00	30.068 
00:10	27.5	27.5	27.5	59	15.1	0	0	---	0.00	30.068 
00:15	27.2	27.2	27.2	60	15.2	0	0	---	0.00	30.069 
00:20	26.9	26.9	26.9	60	14.9	0	0	---	0.00	30.069 
00:25	26.7	26.7	26.7	61	15.1	0	0	---	0.00	30.069 
00:30	26.4	26.4	26.4	62	15.2	0	0	---	0.00	30.067 
00:35	26.3	26.3	26.3	62	15.1	0	0	---	0.00	30.067 
00:40	26.1	26.1	26.1	62	14.9	0	0	---	0.00	30.067 
00:45	26.0	26.0	26.0	63	15.2	0	0	---	0.00	30.061 
00:50	25.8	25.8	25.8	63	15.0	0	0	---	0.00	30.061 
00:55	25.7	25.7	25.7	64	15.2	0	0	---	0.00	30.061 
01:00	25.6	25.6	25.6	65	15.5	0	0	---	0.00	30.058 
01:05	25.6	25.6	25.6	65	15.5	0	0	---	0.00	30.058 
01:10	25.6	25.6	25.6	65	15.5	0	0	---	0.00	30.058 
01:15	25.4	25.4	25.4	66	15.7	0	0	---	0.00	30.055 
01:20	25.4	25.4	25.4	66	15.7	0	0	---	0.00	30.055 
01:25	25.4	25.4	25.4	66	15.7	0	0	---	0.00	30.055 
01:30	25.4	25.4	25.4	66	15.7	0	0	---	0.00	30.054 
01:35	25.4	25.4	25.4	66	15.7	0	0	---	0.00	30.054 
01:40	25.3	25.3	25.3	66	15.6	0	0	---	0.00	30.054 
01:45	25.3	25.3	25.3	67	15.9	0	0	---	0.00	30.054 
01:50	25.1	25.1	25.1	67	15.7	0	0	---	0.00	30.054 
01:55	25.0	25.0	25.0	67	15.6	0	0	---	0.00	30.054 
02:00	24.7	24.7	24.7	68	15.7	0	0	---	0.00	30.051 
02:05	24.5	24.5	24.5	68	15.5	0	0	---	0.00	30.051 
02:10	24.4	24.4	24.4	68	15.4	0	0	---	0.00	30.051 
02:15	24.2	24.2	24.2	69	15.5	0	0	---	0.00	30.049 
02:20	24.2	24.2	24.2	69	15.5	0	0	---	0.00	30.049 
02:25	24.1	24.1	24.1	69	15.4	0	0	---	0.00	30.049 
02:30	24.1	24.1	24.1	69	15.4	0	0	---	0.00	30.048 
02:35	23.9	23.9	23.9	70	15.6	0	0	---	0.00	30.048 
02:40	23.9	23.9	23.9	70	15.6	0	0	---	0.00	30.048 
02:45	23.8	23.8	23.8	70	15.5	0	0	---	0.00	30.053 
02:50	23.8	23.8	23.8	71	15.8	0	0	---	0.00	30.053 
02:55	23.6	23.6	23.6	70	15.3	0	0	---	0.00	30.053 
03:00	23.5	23.5	23.5	71	15.5	0	0	---	0.00	30.055 
03:05	23.5	23.5	23.5	71	15.5	0	0	---	0.00	30.055 
03:10	23.3	23.3	23.3	71	15.3	0	0	---	0.00	30.055 
03:15	23.2	23.2	23.2	72	15.5	0	0	---	0.00	30.054 
03:20	23.0	23.0	23.0	72	15.3	0	0	---	0.00	30.054 
03:25	23.0	23.0	23.0	73	15.7	0	0	---	0.00	30.054 
03:30	23.0	23.0	23.0	73	15.7	0	0	---	0.00	30.051 
03:35	23.0	23.0	23.0	73	15.7	0	0	---	0.00	30.051 
03:40	23.0	23.0	23.0	74	16.0	0	0	---	0.00	30.051 
03:45	23.0	23.0	23.0	74	16.0	0	0	---	0.00	30.051 
03:50	23.0	23.0	23.0	74	16.0	0	0	---	0.00	30.051 
03:55	23.0	23.0	23.0	74	16.0	0	0	---	0.00	30.051 
04:00	23.0	23.0	23.0	74	16.0	0	0	---	0.00	30.050 
04:05	23.0	23.0	23.0	75	16.3	0	0	---	0.00	30.050 
04:10	23.0	23.0	23.0	75	16.3	0	0	---	0.00	30.050 
04:15	23.0	23.0	23.0	75	16.3	0	0	---	0.00	30.053 
04:20	22.9	22.9	22.9	75	16.2	0	0	---	0.00	30.053 
04:25	22.9	22.9	22.9	75	16.2	0	0	---	0.00	30.053 
04:30	22.7	22.7	22.7	75	16.0	0	0	---	0.00	30.054 
04:35	22.5	22.5	22.5	76	16.1	0	0	---	0.00	30.054 
04:40	22.5	22.5	22.5	76	16.1	0	0	---	0.00	30.054 
04:45	22.5	22.5	22.5	76	16.1	0	0	---	0.00	30.052 
04:50	22.4	22.4	22.4	76	16.0	0	0	---	0.00	30.052 
04:55	22.4	22.4	22.4	77	16.3	0	0	---	0.00	30.052 
05:00	22.2	22.2	22.2	76	15.8	0	0	---	0.00	30.055 
05:05	22.1	22.1	22.1	77	16.0	0	0	---	0.00	30.055 
05:10	21.9	21.9	21.9	77	15.8	0	0	---	0.00	30.055 
05:15	21.9	21.9	21.9	77	15.8	0	0	---	0.00	30.053 
05:20	21.8	21.8	21.8	77	15.7	0	0	---	0.00	30.053 
05:25	21.8	21.8	21.8	78	16.0	0	0	---	0.00	30.053 
05:30	21.8	21.8	21.8	78	16.0	0	0	---	0.00	30.053 
05:35	21.6	21.6	21.6	78	15.8	0	0	---	0.00	30.053 
05:40	21.4	21.4	21.4	78	15.6	0	0	---	0.00	30.053 
05:45	21.3	21.3	21.3	79	15.8	0	0	---	0.00	30.052 
05:50	21.1	21.1	21.1	79	15.6	0	0	---	0.00	30.052 
05:55	21.0	21.0	21.0	79	15.5	0	0	---	0.00	30.052 
06:00	20.8	20.8	20.8	79	15.3	0	0	---	0.00	30.053 
06:05	20.6	20.6	20.6	79	15.1	0	0	---	0.00	30.053 
06:10	20.5	20.5	20.5	80	15.3	0	0	---	0.00	30.053 
06:15	20.5	20.5	20.5	80	15.3	0	0	---	0.00	30.059 
06:20	20.5	20.5	20.5	81	15.6	0	0	---	0.00	30.059 
06:25	20.6	20.6	20.6	81	15.7	0	0	---	0.00	30.059 
06:30	20.6	20.6	20.6	81	15.7	0	0	---	0.00	30.058 
06:35	20.6	20.6	20.6	81	15.7	0	0	---	0.00	30.058 
06:40	20.6	20.6	20.6	81	15.7	0	0	---	0.00	30.058 
06:45	20.6	20.6	20.6	82	16.0	0	0	---	0.00	30.058 
06:50	20.6	20.6	20.6	82	16.0	0	0	---	0.00	30.058 
06:55	20.8	20.8	20.8	82	16.2	0	0	---	0.00	30.058 
07:00	21.0	21.0	21.0	83	16.7	0	0	---	0.00	30.060 
07:05	21.3	21.3	21.3	83	17.0	0	0	---	0.00	30.060 
07:10	21.4	21.4	21.4	83	17.1	0	0	---	0.00	30.060 
07:15	21.4	21.4	21.4	83	17.1	0	0	---	0.00	30.069 
07:20	21.6	21.6	21.6	83	17.3	0	0	---	0.00	30.069 
07:25	21.6	21.6	21.6	83	17.3	0	0	---	0.00	30.069 
07:30	21.6	21.6	21.6	83	17.3	0	0	---	0.00	30.068 
07:35	21.4	21.4	21.4	83	17.1	0	0	---	0.00	30.068 
07:40	21.6	21.6	21.6	84	17.5	0	0	---	0.00	30.068 
07:45	21.6	21.6	21.6	84	17.5	0	0	---	0.00	30.075 
07:50	21.4	21.4	21.4	84	17.3	0	0	---	0.00	30.075 
07:55	21.6	21.6	21.6	84	17.5	0	0	---	0.00	30.075 
08:00	21.8	21.8	21.8	84	17.7	0	1	248	0.00	30.086 
08:05	21.9	21.9	21.9	84	17.8	0	0	---	0.00	30.086 
08:10	22.1	22.1	22.1	84	18.0	0	0	---	0.00	30.086 
08:15	22.2	22.2	22.2	84	18.1	0	0	---	0.00	30.095 
08:20	22.4	22.4	22.4	84	18.3	0	0	---	0.00	30.095 
08:25	22.7	22.7	22.7	85	18.9	0	0	---	0.00	30.095 
08:30	23.2	23.2	23.2	85	19.4	0	0	---	0.00	30.094 
08:35	23.5	23.5	23.5	85	19.7	0	0	---	0.00	30.094 
08:40	24.1	24.1	24.1	85	20.3	0	0	---	0.00	30.094 
08:45	24.5	24.5	24.5	84	20.4	0	1	248	0.00	30.094 
08:50	25.1	25.1	25.1	84	21.0	0	1	248	0.00	30.094 
08:55	25.4	25.4	25.4	83	21.0	0	1	338	0.00	30.094 
09:00	25.7	25.7	25.7	82	21.0	0	2	338	0.00	30.101 
09:05	26.0	26.0	26.0	82	21.3	0	3	270	0.00	30.101 
09:10	26.4	26.4	26.4	81	21.4	0	1	270	0.00	30.101 
09:15	26.7	26.7	26.7	80	21.4	0	2	270	0.00	30.106 
09:20	27.0	27.0	27.0	79	21.4	0	2	270	0.00	30.106 
09:25	27.2	27.2	27.2	79	21.6	0	2	292	0.00	30.106 
09:30	27.6	27.6	27.6	78	21.7	0	2	292	0.00	30.108 
09:35	28.1	28.1	28.1	78	22.1	0	2	292	0.00	30.108 
09:40	28.4	28.4	28.4	77	22.1	0	2	292	0.00	30.108 
09:45	28.8	28.8	28.8	76	22.2	0	3	292	0.00	30.107 
09:50	29.3	29.3	29.3	75	22.4	0	2	270	0.00	30.107 
09:55	29.8	29.8	29.8	74	22.5	0	1	270	0.00	30.107 
10:00	30.1	30.1	30.1	73	22.5	0	1	270	0.00	30.105 
10:05	30.6	30.6	30.6	73	23.0	0	3	270	0.00	30.105 
10:10	31.2	31.2	31.2	71	22.9	0	3	135	0.00	30.105 
10:15	31.5	31.5	31.5	71	23.2	0	1	135	0.00	30.095 
10:20	31.8	31.8	31.8	70	23.2	0	2	135	0.00	30.095 
10:25	31.9	31.9	31.9	70	23.2	0	2	68	0.00	30.095 
10:30	32.5	32.5	32.5	69	23.5	0	2	68	0.00	30.099 
10:35	32.8	32.8	32.8	67	23.1	0	2	68	0.00	30.099 
10:40	33.2	33.2	33.2	66	23.1	0	1	68	0.00	30.099 
10:45	34.0	34.0	34.0	65	23.5	1	4	90	0.00	30.099 
10:50	34.3	34.3	34.3	64	23.4	1	3	90	0.00	30.099 
10:55	34.4	34.4	34.4	63	23.1	2	5	90	0.00	30.099 
11:00	34.4	34.4	34.4	63	23.1	1	2	90	0.00	30.101 
11:05	34.7	34.7	34.7	62	23.0	1	3	90	0.00	30.101 
11:10	35.3	35.3	35.3	64	24.4	1	3	90	0.00	30.101 
11:15	35.5	35.5	35.5	61	23.4	1	3	0	0.00	30.108 
11:20	35.5	35.5	35.5	61	23.4	0	2	338	0.00	30.108 
11:25	36.0	36.0	36.0	59	23.1	0	3	248	0.00	30.108 
11:30	36.0	36.0	36.0	58	22.7	0	2	248	0.00	30.107 
11:35	36.0	36.0	36.0	58	22.7	0	2	248	0.00	30.107 
11:40	36.3	36.3	36.3	55	21.7	1	2	225	0.00	30.107 
11:45	36.6	36.6	36.6	58	23.2	0	1	225	0.00	30.105 
11:50	37.2	37.2	37.2	57	23.4	1	3	225	0.00	30.105 
11:55	37.3	37.3	37.3	57	23.5	1	2	225	0.00	30.105 
12:00	37.3	37.3	37.3	55	22.6	1	3	225	0.00	30.108 
12:05	37.8	37.8	37.8	53	22.2	0	1	225	0.00	30.108 
12:10	38.3	38.3	38.3	51	21.8	1	4	225	0.00	30.108 
12:15	38.5	38.5	38.5	53	22.9	2	5	112	0.00	30.103 
12:20	38.2	38.2	38.2	52	22.1	1	3	112	0.00	30.103 
12:25	38.3	38.3	38.3	51	21.8	1	2	112	0.00	30.103 
12:30	38.3	38.3	38.3	51	21.8	1	3	315	0.00	30.102 
12:35	38.5	38.5	38.5	49	21.0	1	3	315	0.00	30.102 
12:40	38.6	38.6	38.6	47	20.1	1	3	292	0.00	30.102 
12:45	38.8	38.8	38.8	47	20.3	0	3	292	0.00	30.102 
12:50	38.6	38.6	38.6	47	20.1	1	3	338	0.00	30.102 
12:55	39.1	39.1	39.1	47	20.6	0	2	338	0.00	30.102 
13:00	39.3	39.3	39.3	49	21.8	2	6	315	0.00	30.096 
13:05	39.3	39.3	39.3	50	22.2	1	5	315	0.00	30.096 
13:10	39.3	39.3	39.3	50	22.2	0	2	0	0.00	30.096 
13:15	39.8	39.8	39.8	51	23.2	1	3	315	0.00	30.098 
13:20	40.2	40.2	40.2	48	22.1	1	4	270	0.00	30.098 
13:25	40.2	40.2	40.2	47	21.6	1	4	338	0.00	30.098 
13:30	40.6	40.6	40.6	47	22.0	1	4	292	0.00	30.091 
13:35	40.9	40.9	40.9	50	23.7	1	2	248	0.00	30.091 
13:40	41.2	41.2	41.2	50	24.0	1	3	22	0.00	30.091 
13:45	41.5	41.5	41.5	49	23.8	1	3	0	0.00	30.085 
13:50	41.1	41.1	41.1	49	23.4	2	7	338	0.00	30.085 
13:55	40.3	40.3	40.3	49	22.7	1	4	338	0.00	30.085 
14:00	40.3	40.3	40.3	50	23.2	1	5	338	0.00	30.079 
14:05	40.2	40.2	40.2	48	22.1	1	3	315	0.00	30.079 
14:10	40.5	40.5	40.5	49	22.9	1	3	248	0.00	30.079 
14:15	41.1	41.1	41.1	47	22.4	1	5	90	0.00	30.081 
14:20	41.1	41.1	41.1	50	23.9	1	4	90	0.00	30.081 
14:25	41.1	41.1	41.1	49	23.4	2	4	292	0.00	30.081 
14:30	40.6	40.6	40.6	47	22.0	1	4	338	0.00	30.076 
14:35	40.6	40.6	40.6	48	22.5	1	2	22	0.00	30.076 
14:40	41.1	41.1	41.1	47	22.4	1	5	22	0.00	30.076 
14:45	41.6	41.6	41.6	49	23.9	1	4	338	0.00	30.077 
14:50	41.3	41.3	41.3	47	22.6	0	3	22	0.00	30.077 
14:55	41.3	41.3	41.3	49	23.6	1	4	22	0.00	30.077 
15:00	41.5	41.5	41.5	50	24.3	1	5	90	0.00	30.069 
15:05	41.1	41.1	41.1	49	23.4	0	2	0	0.00	30.069 
15:10	40.8	40.8	40.8	48	22.6	1	5	112	0.00	30.069 
15:15	41.2	41.2	41.2	47	22.5	1	5	90	0.00	30.070 
15:20	41.2	41.2	41.2	48	23.0	2	5	112	0.00	30.070 
15:25	40.9	40.9	40.9	48	22.7	1	3	22	0.00	30.070 
15:30	41.1	41.1	41.1	50	23.9	1	3	22	0.00	30.064 
15:35	41.6	41.6	41.6	49	23.9	2	7	112	0.00	30.064 
15:40	41.8	41.8	41.8	49	24.1	1	5	90	0.00	30.064 
15:45	41.9	41.9	41.9	48	23.7	1	4	22	0.00	30.065 
15:50	41.9	41.9	41.9	48	23.7	1	5	338	0.00	30.065 
15:55	42.1	42.1	42.1	49	24.3	0	2	338	0.00	30.065 
16:00	41.8	41.8	41.8	46	22.6	1	5	45	0.00	30.064 
16:05	41.3	41.3	41.3	46	22.1	1	5	90	0.00	30.064 
16:10	41.5	41.5	41.5	48	23.3	2	6	112	0.00	30.064 
16:15	41.5	41.5	41.5	48	23.3	2	7	68	0.00	30.059 
16:20	41.5	41.5	41.5	48	23.3	2	10	90	0.00	30.059 
16:25	41.3	41.3	41.3	47	22.6	1	3	22	0.00	30.059 
16:30	41.3	41.3	41.3	48	23.1	1	3	90	0.00	30.058 
16:35	41.5	41.5	41.5	49	23.8	1	4	90	0.00	30.058 
16:40	41.8	41.8	41.8	48	23.6	1	2	90	0.00	30.058 
16:45	41.8	41.8	41.8	47	23.1	1	5	90	0.00	30.057 
16:50	41.6	41.6	41.6	46	22.4	1	3	112	0.00	30.057 
16:55	41.6	41.6	41.6	47	22.9	1	3	315	0.00	30.057 
17:00	41.5	41.5	41.5	46	22.3	0	3	315	0.00	30.056 
17:05	41.6	41.6	41.6	47	22.9	1	5	315	0.00	30.056 
17:10	41.6	41.6	41.6	47	22.9	2	5	112	0.00	30.056 
17:15	41.3	41.3	41.3	47	22.6	1	6	112	0.00	30.053 
17:20	41.3	41.3	41.3	49	23.6	0	2	112	0.00	30.053 
17:25	41.6	41.6	41.6	47	22.9	1	4	90	0.00	30.053 
17:30	41.8	41.8	41.8	46	22.6	2	5	90	0.00	30.048 
17:35	41.6	41.6	41.6	47	22.9	2	4	90	0.00	30.048 
17:40	41.8	41.8	41.8	46	22.6	0	3	68	0.00	30.048 
17:45	41.9	41.9	41.9	46	22.6	0	3	45	0.00	30.043 
17:50	41.9	41.9	41.9	46	22.6	0	1	45	0.00	30.043 
17:55	41.9	41.9	41.9	45	22.1	0	2	45	0.00	30.043 
18:00	41.9	41.9	41.9	45	22.1	0	1	45	0.00	30.041 
18:05	41.9	41.9	41.9	47	23.2	1	3	90	0.00	30.041 
18:10	41.8	41.8	41.8	46	22.6	1	4	90	0.00	30.041 
18:15	41.6	41.6	41.6	46	22.4	1	4	112	0.00	30.041 
18:20	41.3	41.3	41.3	45	21.6	1	5	90	0.00	30.041 
18:25	41.1	41.1	41.1	46	21.9	1	3	112	0.00	30.041 
18:30	41.1	41.1	41.1	47	22.4	1	4	90	0.00	30.039 
18:35	41.1	41.1	41.1	47	22.4	1	4	112	0.00	30.039 
18:40	40.9	40.9	40.9	46	21.7	0	2	68	0.00	30.039 
18:45	40.8	40.8	40.8	45	21.1	2	5	90	0.00	30.041 
18:50	40.6	40.6	40.6	46	21.5	0	2	112	0.00	30.041 
18:55	40.6	40.6	40.6	46	21.5	1	4	112	0.00	30.041 
19:00	40.5	40.5	40.5	46	21.4	0	1	112	0.00	30.043 
19:05	40.2	40.2	40.2	47	21.6	0	4	112	0.00	30.043 
19:10	40.1	40.1	40.1	47	21.5	0	3	112	0.00	30.043 
19:15	39.9	39.9	39.9	48	21.8	0	3	112	0.00	30.041 
19:20	39.8	39.8	39.8	48	21.7	2	4	112	0.00	30.041 
19:25	39.6	39.6	39.6	49	22.0	2	5	90	0.00	30.041 
19:30	39.5	39.5	39.5	49	21.9	2	5	112	0.00	30.042 
19:35	39.3	39.3	39.3	50	22.2	1	3	112	0.00	30.042 
19:40	39.1	39.1	39.1	52	23.0	3	7	90	0.00	30.042 
19:45	38.6	38.6	38.6	53	23.0	2	6	112	0.00	30.042 
19:50	38.3	38.3	38.3	54	23.1	2	4	112	0.00	30.042 
19:55	38.0	38.0	38.0	55	23.3	2	4	90	0.00	30.042 
20:00	37.6	37.6	37.6	55	22.9	1	4	90	0.00	30.043 
20:05	37.3	37.3	37.3	56	23.1	2	4	90	0.00	30.043 
20:10	37.0	37.0	37.0	56	22.8	1	4	112	0.00	30.043 
20:15	36.8	36.8	36.8	57	23.0	1	4	90	0.00	30.042 
20:20	36.6	36.6	36.6	57	22.8	1	3	90	0.00	30.042 
20:25	36.3	36.3	36.3	58	23.0	2	5	112	0.00	30.042 
20:30	36.2	36.2	36.2	58	22.9	1	4	112	0.00	30.042 
20:35	35.9	35.9	35.9	58	22.6	1	3	112	0.00	30.042 
20:40	35.6	35.6	35.6	59	22.7	1	3	112	0.00	30.042 
20:45	35.5	35.5	35.5	60	23.0	1	4	112	0.00	30.041 
20:50	35.2	35.2	35.2	60	22.7	1	3	112	0.00	30.041 
20:55	34.9	34.9	34.9	61	22.8	0	2	112	0.00	30.041 
21:00	34.4	34.4	34.4	61	22.4	1	2	112	0.00	30.043 
21:05	34.3	34.3	34.3	62	22.7	1	3	112	0.00	30.043 
21:10	34.0	34.0	34.0	62	22.4	1	4	112	0.00	30.043 
21:15	33.8	33.8	33.8	63	22.6	1	5	90	0.00	30.039 
21:20	33.5	33.5	33.5	63	22.3	1	3	90	0.00	30.039 
21:25	33.4	33.4	33.4	64	22.6	1	5	90	0.00	30.039 
21:30	33.4	33.4	33.4	64	22.6	1	6	90	0.00	30.041 
21:35	33.4	33.4	33.4	64	22.6	2	6	90	0.00	30.041 
21:40	33.2	33.2	33.2	64	22.4	1	3	90	0.00	30.041 
21:45	33.1	33.1	33.1	65	22.6	2	3	90	0.00	30.043 
21:50	32.8	32.8	32.8	65	22.3	2	5	90	0.00	30.043 
21:55	32.8	32.8	32.8	65	22.3	1	4	90	0.00	30.043 
22:00	32.7	32.7	32.7	66	22.6	1	4	90	0.00	30.043 
22:05	32.5	32.5	32.5	66	22.4	1	4	112	0.00	30.043 
22:10	32.5	32.5	32.5	66	22.4	1	4	112	0.00	30.043 
22:15	32.4	32.4	32.4	66	22.3	1	3	112	0.00	30.033 
22:20	32.2	32.2	32.2	66	22.1	0	4	112	0.00	30.033 
22:25	32.2	32.2	32.2	66	22.1	1	5	112	0.00	30.033 
22:30	32.1	32.1	32.1	66	22.0	2	5	112	0.00	30.027 
22:35	31.9	31.9	31.9	66	21.9	2	5	112	0.00	30.027 
22:40	31.8	31.8	31.8	66	21.8	2	5	90	0.00	30.027 
22:45	31.6	31.6	31.6	67	21.9	2	4	90	0.00	30.021 
22:50	31.5	31.5	31.5	67	21.8	1	4	90	0.00	30.021 
22:55	31.5	31.5	31.5	67	21.8	2	4	112	0.00	30.021 
23:00	31.5	31.5	31.5	68	22.2	1	6	112	0.00	30.007 
23:05	31.3	31.3	31.3	68	22.0	1	3	90	0.00	30.007 
23:10	31.3	31.3	31.3	68	22.0	1	4	90	0.00	30.007 
23:15	31.3	31.3	31.3	67	21.6	2	5	112	0.00	30.003 
23:20	31.3	31.3	31.3	67	21.6	1	3	112	0.00	30.003 
23:25	31.3	31.3	31.3	67	21.6	2	5	112	0.00	30.003 
23:30	31.3	31.3	31.3	67	21.6	2	6	112	0.00	30.001 
23:35	31.3	31.3	31.3	67	21.6	3	10	90	0.00	30.001 
23:40	31.3	31.3	31.3	67	21.6	1	5	90	0.00	30.001 
23:45	31.2	31.2	31.2	69	22.2	2	6	112	0.00	30.003 
23:50	30.9	30.9	30.9	70	22.3	2	6	112	0.00	30.003 
23:55	30.7	30.7	30.7	72	22.8	2	6	90	0.00	30.003 

CoCoRaHS
IN-AL-39
A2 Web Hosting
Creative Commons License
GoDaddy
search engine by freefind advanced

loaded 2018-11-14 04:02:18 • last modified 2010-11-18 10:43:29
Privacy PolicyDisclaimer
• wx.awcolley.com is powered by PmWiki v.2002016 •
• all content (unless otherwise noted) © 2018 A W Colley